Time;durP1;ratioP1;P1;durP2;ratioP2;P2;SDS_P1;SDS_P2;PMS_P1;PMS_P2;Temp;Humidity;BMP_temperature;BMP_pressure;BME280_temperature;BME280_humidity;BME280_pressure;Samples;Min_cycle;Max_cycle;Signal;HPM_P1;HPM_P2
2023/09/09 00:01:09;;;;;;;10.63;9.55;;;21.10;99.90;;;;;;5036229;28;20208;-59
2023/09/09 00:03:35;;;;;;;10.18;9.18;;;21.00;99.90;;;;;;5033076;28;20207;-59
2023/09/09 00:06:11;;;;;;;10.57;9.50;;;21.00;99.90;;;;;;5037304;28;20687;-60
2023/09/09 00:08:37;;;;;;;10.87;9.63;;;21.00;99.90;;;;;;5038941;28;20300;-60
2023/09/09 00:11:03;;;;;;;12.27;10.23;;;20.90;99.90;;;;;;5023129;28;21013;-60
2023/09/09 00:13:29;;;;;;;11.02;9.93;;;21.00;99.90;;;;;;5035711;28;20813;-59
2023/09/09 00:15:55;;;;;;;10.93;9.67;;;21.00;99.90;;;;;;5031121;28;20558;-59
2023/09/09 00:18:20;;;;;;;11.57;10.47;;;21.00;99.90;;;;;;5035636;28;20202;-59
2023/09/09 00:20:46;;;;;;;10.67;9.57;;;21.00;99.90;;;;;;5038188;28;20225;-63
2023/09/09 00:23:12;;;;;;;12.03;9.60;;;21.00;99.90;;;;;;5035062;28;20223;-60
2023/09/09 00:25:40;;;;;;;11.70;10.53;;;21.00;99.90;;;;;;5032791;28;20210;-61
2023/09/09 00:28:07;;;;;;;9.87;8.87;;;20.90;99.90;;;;;;5036940;28;21439;-61
2023/09/09 00:30:32;;;;;;;11.10;10.03;;;20.90;99.90;;;;;;5037143;28;20194;-60
2023/09/09 00:32:58;;;;;;;11.57;10.47;;;20.90;99.90;;;;;;5033095;28;20205;-60
2023/09/09 00:35:24;;;;;;;13.73;9.90;;;20.90;99.90;;;;;;5036970;28;20761;-58
2023/09/09 00:37:50;;;;;;;10.97;9.87;;;20.90;99.90;;;;;;5016215;28;20720;-58
2023/09/09 00:40:16;;;;;;;11.77;10.32;;;20.80;99.90;;;;;;5038489;28;20740;-58
2023/09/09 00:42:41;;;;;;;11.50;10.30;;;20.80;99.90;;;;;;5034984;28;20229;-60
2023/09/09 00:45:07;;;;;;;11.37;10.37;;;20.80;99.90;;;;;;5033394;28;20255;-59
2023/09/09 00:47:33;;;;;;;11.87;10.50;;;20.70;99.90;;;;;;5040745;28;20592;-58
2023/09/09 00:50:00;;;;;;;13.00;10.17;;;20.60;99.90;;;;;;5034108;28;20247;-60
2023/09/09 00:52:26;;;;;;;11.93;10.13;;;20.60;99.90;;;;;;5034701;28;21020;-60
2023/09/09 00:54:52;;;;;;;12.00;10.80;;;20.60;99.90;;;;;;5038111;28;20343;-62
2023/09/09 00:57:18;;;;;;;12.20;10.97;;;20.60;99.90;;;;;;5036626;28;20305;-62
2023/09/09 00:59:43;;;;;;;12.10;10.93;;;20.50;99.90;;;;;;5033848;28;20689;-61
2023/09/09 01:02:09;;;;;;;11.40;10.33;;;20.50;99.90;;;;;;5035982;28;20227;-61
2023/09/09 01:04:35;;;;;;;12.07;9.63;;;20.40;99.90;;;;;;5034836;28;20198;-61
2023/09/09 01:07:01;;;;;;;11.50;10.40;;;20.40;99.90;;;;;;5033672;28;20723;-61
2023/09/09 01:09:28;;;;;;;12.10;10.90;;;20.40;99.90;;;;;;5034887;28;20199;-61
2023/09/09 01:11:54;;;;;;;11.03;10.03;;;20.40;99.90;;;;;;5038103;28;20209;-61
2023/09/09 01:14:19;;;;;;;11.17;10.07;;;20.40;99.90;;;;;;5029809;28;20782;-61
2023/09/09 01:16:48;;;;;;;11.73;10.53;;;20.40;99.90;;;;;;5040636;28;20253;-62
2023/09/09 01:19:16;;;;;;;11.20;10.20;;;20.40;99.90;;;;;;5032130;28;20194;-60
2023/09/09 01:21:44;;;;;;;13.38;10.48;;;20.30;99.90;;;;;;5033604;28;20243;-60
2023/09/09 01:24:15;;;;;;;11.97;10.77;;;20.20;99.90;;;;;;5027987;28;20210;-60
2023/09/09 01:26:43;;;;;;;10.75;9.65;;;20.20;99.90;;;;;;5031164;28;20214;-60
2023/09/09 01:29:08;;;;;;;11.95;10.85;;;20.20;99.90;;;;;;5020888;28;20191;-60
2023/09/09 01:31:34;;;;;;;11.40;10.30;;;20.10;99.90;;;;;;5034386;28;20209;-60
2023/09/09 01:33:59;;;;;;;11.40;10.40;;;20.10;99.90;;;;;;5033191;28;20234;-58
2023/09/09 01:36:25;;;;;;;11.07;10.17;;;20.10;99.90;;;;;;5016548;28;20522;-58
2023/09/09 01:38:50;;;;;;;11.00;9.90;;;20.10;99.90;;;;;;5029639;28;21037;-61
2023/09/09 01:41:16;;;;;;;10.60;9.63;;;20.10;99.90;;;;;;5038935;28;20211;-58
2023/09/09 01:43:41;;;;;;;11.53;10.43;;;20.10;99.90;;;;;;5025669;28;20215;-59
2023/09/09 01:46:07;;;;;;;14.20;10.33;;;20.00;99.90;;;;;;5032248;28;20304;-59
2023/09/09 01:48:32;;;;;;;12.30;10.47;;;20.00;99.90;;;;;;5029680;28;20233;-59
2023/09/09 01:50:58;;;;;;;11.97;10.70;;;20.00;99.90;;;;;;5035353;28;20229;-60
2023/09/09 01:53:23;;;;;;;10.90;9.83;;;20.00;99.90;;;;;;5036149;28;20202;-59
2023/09/09 01:55:49;;;;;;;11.80;9.87;;;20.00;99.90;;;;;;5036258;28;20199;-58
2023/09/09 01:58:15;;;;;;;11.20;10.10;;;19.90;99.90;;;;;;5038488;28;20207;-65
2023/09/09 02:00:41;;;;;;;11.60;10.60;;;19.80;99.90;;;;;;5038934;28;20194;-57
2023/09/09 02:03:07;;;;;;;12.07;10.87;;;19.80;99.90;;;;;;5031501;28;20603;-61
2023/09/09 02:05:33;;;;;;;10.63;9.63;;;19.70;99.90;;;;;;5028513;28;20756;-62
2023/09/09 02:07:58;;;;;;;11.73;10.53;;;19.70;99.90;;;;;;5032146;28;20203;-62
2023/09/09 02:10:24;;;;;;;15.30;10.60;;;19.70;99.90;;;;;;5023863;28;20205;-62
2023/09/09 02:12:49;;;;;;;11.57;10.47;;;19.60;99.90;;;;;;5034865;28;20202;-61
2023/09/09 02:15:15;;;;;;;10.97;9.97;;;19.60;99.90;;;;;;5031869;28;20206;-60
2023/09/09 02:17:41;;;;;;;14.17;10.53;;;19.60;99.90;;;;;;5021230;28;20209;-62
2023/09/09 02:20:07;;;;;;;11.70;10.27;;;19.50;99.90;;;;;;5035747;28;20202;-62
2023/09/09 02:22:32;;;;;;;12.03;10.87;;;19.50;99.90;;;;;;5035359;28;20275;-61
2023/09/09 02:24:58;;;;;;;12.70;11.50;;;19.50;99.90;;;;;;5032848;28;20198;-61
2023/09/09 02:27:24;;;;;;;12.40;11.13;;;19.60;99.90;;;;;;5038873;28;20884;-61
2023/09/09 02:29:50;;;;;;;12.33;10.97;;;19.60;99.90;;;;;;5033256;28;20190;-60
2023/09/09 02:32:16;;;;;;;12.77;11.57;;;19.60;99.90;;;;;;5022116;28;20924;-60
2023/09/09 02:34:42;;;;;;;12.07;10.87;;;19.60;99.90;;;;;;5039683;28;20194;-62
2023/09/09 02:37:17;;;;;;;12.20;11.10;;;19.60;99.90;;;;;;5036683;28;20243;-61
2023/09/09 02:39:44;;;;;;;11.77;10.77;;;19.60;99.90;;;;;;5035928;28;20195;-60
2023/09/09 02:42:21;;;;;;;14.23;11.13;;;19.50;99.90;;;;;;5035822;28;20327;-60
2023/09/09 02:44:47;;;;;;;12.93;11.53;;;19.50;99.90;;;;;;5024838;28;20314;-61
2023/09/09 02:47:13;;;;;;;13.83;11.07;;;19.50;99.90;;;;;;5014500;28;20827;-60
2023/09/09 02:49:39;;;;;;;12.10;11.00;;;19.40;99.90;;;;;;5038622;28;20209;-60
2023/09/09 02:52:09;;;;;;;12.40;10.37;;;19.30;99.90;;;;;;5030730;28;20208;-61
2023/09/09 02:54:35;;;;;;;11.70;10.60;;;19.30;99.90;;;;;;5021384;28;20209;-61
2023/09/09 02:57:03;;;;;;;11.33;10.27;;;19.30;99.90;;;;;;5033997;28;20251;-62
2023/09/09 02:59:30;;;;;;;14.10;11.23;;;19.30;99.90;;;;;;5032742;28;20249;-62
2023/09/09 03:01:55;;;;;;;12.17;10.97;;;19.30;99.90;;;;;;5034344;28;20198;-60
2023/09/09 03:04:20;;;;;;;12.87;11.53;;;19.30;99.90;;;;;;5036698;28;20889;-61
2023/09/09 03:06:46;;;;;;;12.57;11.27;;;19.40;99.90;;;;;;5032048;28;20220;-60
2023/09/09 03:09:14;;;;;;;11.83;10.63;;;19.30;99.90;;;;;;5038365;28;20206;-61
2023/09/09 03:11:39;;;;;;;11.13;10.23;;;19.30;99.90;;;;;;5015932;28;20202;-61
2023/09/09 03:14:05;;;;;;;12.13;11.03;;;19.20;99.90;;;;;;5034499;28;20589;-61
2023/09/09 03:16:30;;;;;;;11.80;10.50;;;19.20;99.90;;;;;;5041205;28;20207;-61
2023/09/09 03:18:56;;;;;;;12.00;11.00;;;19.20;99.90;;;;;;5034624;28;21040;-61
2023/09/09 03:21:21;;;;;;;12.23;11.03;;;19.20;99.90;;;;;;5035300;28;20234;-59
2023/09/09 03:23:47;;;;;;;13.23;11.93;;;19.20;99.90;;;;;;5034548;28;20243;-60
2023/09/09 03:26:18;;;;;;;11.90;10.83;;;19.30;99.90;;;;;;5038520;28;20198;-61
2023/09/09 03:28:53;;;;;;;12.40;11.13;;;19.30;99.90;;;;;;5015520;28;20190;-61
2023/09/09 03:31:19;;;;;;;13.87;12.30;;;19.20;99.90;;;;;;5037636;28;20784;-61
2023/09/09 03:33:44;;;;;;;12.93;11.27;;;19.10;99.90;;;;;;5040290;28;20223;-60
2023/09/09 03:36:10;;;;;;;12.50;11.30;;;19.10;99.90;;;;;;5037866;28;20615;-60
2023/09/09 03:38:36;;;;;;;11.30;10.23;;;19.20;99.90;;;;;;5035070;28;20206;-61
2023/09/09 03:41:06;;;;;;;13.57;12.13;;;19.10;99.90;;;;;;5041994;28;20693;-60
2023/09/09 03:43:32;;;;;;;12.93;11.77;;;19.10;99.90;;;;;;5037708;28;20823;-61
2023/09/09 03:45:58;;;;;;;12.97;11.63;;;19.00;99.90;;;;;;5039349;28;20213;-61
2023/09/09 03:48:24;;;;;;;12.53;11.33;;;19.00;99.90;;;;;;5045187;28;20226;-60
2023/09/09 03:50:50;;;;;;;12.70;11.20;;;19.00;99.90;;;;;;5038101;28;20213;-61
2023/09/09 03:53:15;;;;;;;12.67;11.30;;;18.90;99.90;;;;;;5036655;28;20207;-60
2023/09/09 03:55:41;;;;;;;12.67;11.37;;;18.80;99.90;;;;;;5036795;28;20201;-59
2023/09/09 03:58:06;;;;;;;12.77;11.57;;;18.90;99.90;;;;;;5033716;28;20210;-59
2023/09/09 04:00:34;;;;;;;12.83;11.63;;;18.90;99.90;;;;;;5037230;28;20292;-60
2023/09/09 04:03:00;;;;;;;11.80;10.60;;;18.90;99.90;;;;;;5036429;28;20623;-60
2023/09/09 04:05:25;;;;;;;13.23;11.73;;;18.90;99.90;;;;;;5037393;28;20195;-60
2023/09/09 04:07:51;;;;;;;15.23;11.43;;;18.90;99.90;;;;;;5037822;28;20198;-61
2023/09/09 04:10:16;;;;;;;13.43;12.17;;;18.80;99.90;;;;;;5040870;28;20213;-61
2023/09/09 04:12:42;;;;;;;11.73;10.53;;;18.80;99.90;;;;;;5033631;28;20852;-62
2023/09/09 04:15:08;;;;;;;12.33;11.23;;;18.80;99.90;;;;;;5031136;28;20195;-60
2023/09/09 04:17:34;;;;;;;13.30;11.93;;;18.70;99.90;;;;;;5046524;28;20213;-59
2023/09/09 04:19:59;;;;;;;13.57;11.67;;;18.70;99.90;;;;;;5018346;28;20320;-60
2023/09/09 04:22:26;;;;;;;12.73;11.37;;;18.80;99.90;;;;;;5039228;28;20252;-60
2023/09/09 04:24:53;;;;;;;15.07;13.67;;;18.70;99.90;;;;;;5041050;28;20223;-60
2023/09/09 04:27:19;;;;;;;14.67;12.30;;;18.80;99.90;;;;;;5036971;28;20338;-60
2023/09/09 04:29:45;;;;;;;15.30;12.10;;;18.80;99.90;;;;;;5032472;28;20226;-62
2023/09/09 04:32:12;;;;;;;13.67;12.23;;;18.70;99.90;;;;;;5035426;28;20214;-61
2023/09/09 04:34:37;;;;;;;13.40;12.10;;;18.70;99.90;;;;;;5035298;28;20224;-60
2023/09/09 04:37:03;;;;;;;14.03;12.53;;;18.70;99.90;;;;;;5030005;28;20693;-62
2023/09/09 04:39:29;;;;;;;14.50;12.97;;;18.70;99.90;;;;;;5035291;28;20241;-60
2023/09/09 04:41:54;;;;;;;14.47;12.93;;;18.80;99.90;;;;;;5037256;28;20685;-61
2023/09/09 04:44:19;;;;;;;12.60;11.33;;;18.70;99.90;;;;;;5032029;28;20210;-62
2023/09/09 04:46:45;;;;;;;14.60;13.10;;;18.60;99.90;;;;;;5034560;28;21043;-61
2023/09/09 04:49:11;;;;;;;13.83;12.53;;;18.60;99.90;;;;;;5022359;28;20215;-60
2023/09/09 04:51:37;;;;;;;13.43;12.17;;;18.70;99.90;;;;;;5014790;28;20226;-61
2023/09/09 04:54:02;;;;;;;13.43;12.13;;;18.60;99.90;;;;;;5032723;28;20207;-62
2023/09/09 04:56:31;;;;;;;14.40;13.03;;;18.60;99.90;;;;;;5034316;28;20206;-61
2023/09/09 04:58:57;;;;;;;17.90;14.30;;;18.50;99.90;;;;;;5018819;28;20866;-60
2023/09/09 05:01:22;;;;;;;15.60;13.13;;;18.50;99.90;;;;;;5040940;28;20267;-62
2023/09/09 05:03:48;;;;;;;14.00;12.60;;;18.60;99.90;;;;;;5037055;28;20225;-61
2023/09/09 05:06:13;;;;;;;13.43;12.13;;;18.40;99.90;;;;;;5038246;28;20671;-58
2023/09/09 05:08:39;;;;;;;13.00;11.83;;;18.40;99.90;;;;;;5021014;28;20198;-58
2023/09/09 05:11:04;;;;;;;13.83;12.53;;;18.40;99.90;;;;;;5011300;28;20206;-59
2023/09/09 05:13:30;;;;;;;14.67;12.90;;;18.50;99.90;;;;;;5039598;28;20278;-58
2023/09/09 05:15:55;;;;;;;15.00;13.33;;;18.40;99.90;;;;;;5035968;28;20647;-59
2023/09/09 05:18:21;;;;;;;14.03;12.40;;;18.50;99.90;;;;;;5034723;28;20206;-61
2023/09/09 05:20:46;;;;;;;15.93;13.63;;;18.50;99.90;;;;;;5032258;28;20284;-58
2023/09/09 05:23:12;;;;;;;14.50;13.00;;;18.40;99.90;;;;;;5033367;28;20222;-59
2023/09/09 05:25:37;;;;;;;12.70;11.53;;;18.50;99.90;;;;;;5034330;28;20202;-61
2023/09/09 05:28:03;;;;;;;14.53;13.13;;;18.50;99.90;;;;;;5035496;28;20208;-61
2023/09/09 05:30:29;;;;;;;15.20;13.67;;;18.40;99.90;;;;;;5035637;28;20197;-61
2023/09/09 05:32:54;;;;;;;15.73;14.00;;;18.40;99.90;;;;;;5037922;28;20218;-58
2023/09/09 05:35:19;;;;;;;15.20;12.43;;;18.40;99.90;;;;;;5033354;28;20209;-58
2023/09/09 05:37:45;;;;;;;14.73;12.93;;;18.40;99.90;;;;;;5035476;28;20198;-62
2023/09/09 05:40:11;;;;;;;13.23;11.93;;;18.30;99.90;;;;;;5039662;28;21094;-62
2023/09/09 05:42:38;;;;;;;13.60;12.37;;;18.40;99.90;;;;;;5033266;28;20224;-60
2023/09/09 05:45:03;;;;;;;14.17;12.87;;;18.40;99.90;;;;;;5034836;28;20206;-60
2023/09/09 05:47:29;;;;;;;13.83;12.33;;;18.50;99.90;;;;;;5031059;28;20221;-63
2023/09/09 05:49:55;;;;;;;14.37;12.73;;;18.60;99.90;;;;;;5037465;28;20209;-58
2023/09/09 05:52:20;;;;;;;13.23;11.93;;;18.70;99.90;;;;;;5035563;28;20226;-61
2023/09/09 05:54:46;;;;;;;14.10;12.70;;;18.80;99.90;;;;;;5034017;28;20619;-62
2023/09/09 05:57:11;;;;;;;13.50;12.20;;;18.80;99.90;;;;;;5036425;28;20446;-61
2023/09/09 05:59:38;;;;;;;13.23;12.03;;;18.80;99.90;;;;;;5018651;28;20846;-59
2023/09/09 06:02:04;;;;;;;14.00;12.63;;;18.80;99.90;;;;;;5037484;28;20292;-65
2023/09/09 06:04:29;;;;;;;13.40;11.80;;;18.90;99.90;;;;;;5030647;28;20220;-60
2023/09/09 06:06:56;;;;;;;13.07;11.73;;;18.90;99.90;;;;;;5041168;28;20510;-60
2023/09/09 06:09:21;;;;;;;12.87;11.57;;;19.10;99.90;;;;;;5017380;28;20201;-60
2023/09/09 06:11:49;;;;;;;15.00;12.50;;;19.00;99.90;;;;;;5035203;28;20256;-62
2023/09/09 06:14:15;;;;;;;14.37;12.70;;;19.20;99.90;;;;;;5039359;28;21097;-64
2023/09/09 06:16:41;;;;;;;15.20;12.03;;;19.20;99.90;;;;;;5036862;28;20692;-61
2023/09/09 06:19:06;;;;;;;10.83;9.73;;;19.40;99.90;;;;;;5034334;28;20225;-61
2023/09/09 06:21:32;;;;;;;11.77;10.67;;;19.60;99.90;;;;;;5019737;28;20784;-60
2023/09/09 06:23:57;;;;;;;11.33;10.27;;;19.70;99.90;;;;;;5035363;28;20214;-62
2023/09/09 06:26:23;;;;;;;12.33;10.80;;;19.80;99.90;;;;;;5033122;28;20199;-65
2023/09/09 06:28:48;;;;;;;11.87;10.63;;;20.00;99.90;;;;;;5034854;28;20620;-64
2023/09/09 06:31:14;;;;;;;12.57;11.37;;;20.10;99.90;;;;;;5031926;28;20221;-62
2023/09/09 06:33:39;;;;;;;14.73;10.33;;;20.00;99.90;;;;;;5037334;28;20973;-61
2023/09/09 06:36:05;;;;;;;10.97;9.87;;;20.10;99.90;;;;;;5019943;28;20211;-61
2023/09/09 06:38:30;;;;;;;15.00;10.67;;;20.30;99.90;;;;;;5035265;28;20587;-63
2023/09/09 06:40:55;;;;;;;10.93;9.70;;;20.40;99.90;;;;;;5042026;28;20203;-60
2023/09/09 06:43:21;;;;;;;10.40;9.33;;;20.20;99.90;;;;;;5038218;28;20268;-61
2023/09/09 06:45:48;;;;;;;11.40;9.63;;;20.30;99.90;;;;;;5016840;28;20203;-61
2023/09/09 06:48:17;;;;;;;10.43;9.40;;;20.20;99.90;;;;;;5042533;28;20222;-60
2023/09/09 06:50:47;;;;;;;12.23;11.03;;;20.10;99.90;;;;;;5038280;28;20621;-64
2023/09/09 06:53:13;;;;;;;12.00;10.73;;;20.20;99.90;;;;;;5041042;28;20207;-60
2023/09/09 06:55:41;;;;;;;12.73;11.60;;;20.30;99.90;;;;;;5038162;28;20281;-59
2023/09/09 06:58:07;;;;;;;15.23;10.97;;;20.20;99.90;;;;;;5013962;28;20946;-61
2023/09/09 07:00:32;;;;;;;12.23;11.00;;;20.10;99.90;;;;;;5032189;28;20204;-64
2023/09/09 07:02:58;;;;;;;11.73;10.53;;;20.20;99.90;;;;;;5039984;28;20762;-63
2023/09/09 07:05:24;;;;;;;10.73;9.73;;;20.40;99.90;;;;;;5034451;28;21011;-62
2023/09/09 07:07:50;;;;;;;12.27;10.97;;;20.60;99.90;;;;;;5033451;28;20190;-60
2023/09/09 07:10:15;;;;;;;14.73;11.53;;;20.70;99.90;;;;;;5022631;28;20243;-62
2023/09/09 07:12:42;;;;;;;10.60;9.60;;;20.70;99.90;;;;;;5018018;28;20201;-58
2023/09/09 07:15:08;;;;;;;11.00;9.90;;;20.80;99.90;;;;;;5036902;28;20217;-60
2023/09/09 07:17:34;;;;;;;12.90;10.20;;;20.80;99.90;;;;;;5038089;28;20197;-60
2023/09/09 07:19:59;;;;;;;11.80;10.17;;;20.80;99.90;;;;;;5032196;28;20297;-59
2023/09/09 07:22:25;;;;;;;13.20;10.00;;;20.90;99.90;;;;;;5036416;28;20202;-61
2023/09/09 07:24:51;;;;;;;10.30;9.30;;;20.90;99.90;;;;;;5021705;28;20261;-60
2023/09/09 07:27:16;;;;;;;12.97;10.67;;;21.00;99.90;;;;;;5019761;28;20195;-59
2023/09/09 07:29:42;;;;;;;11.00;10.00;;;21.10;99.90;;;;;;5028035;28;20280;-58
2023/09/09 07:32:07;;;;;;;10.17;8.40;;;21.20;99.90;;;;;;5029698;28;20206;-60
2023/09/09 07:34:34;;;;;;;11.07;9.73;;;21.20;99.90;;;;;;5039807;28;20209;-58
2023/09/09 07:37:00;;;;;;;9.47;8.57;;;21.30;99.90;;;;;;5033567;28;20194;-59
2023/09/09 07:39:29;;;;;;;10.30;9.20;;;21.30;99.90;;;;;;5038961;28;20224;-59
2023/09/09 07:41:55;;;;;;;10.20;8.50;;;21.40;99.90;;;;;;5036496;28;20210;-63
2023/09/09 07:44:20;;;;;;;10.97;8.90;;;21.40;99.90;;;;;;5034790;28;20249;-59
2023/09/09 07:46:46;;;;;;;11.83;10.47;;;21.50;99.90;;;;;;5023738;28;20440;-65
2023/09/09 07:49:11;;;;;;;10.03;9.03;;;21.50;99.90;;;;;;5035458;28;20266;-62
2023/09/09 07:51:38;;;;;;;9.87;8.83;;;21.60;99.90;;;;;;5035000;28;20202;-61
2023/09/09 07:54:03;;;;;;;9.30;8.40;;;21.70;99.90;;;;;;5031533;28;20302;-62
2023/09/09 07:56:29;;;;;;;9.97;8.50;;;21.70;99.90;;;;;;5037252;28;20543;-62
2023/09/09 07:58:54;;;;;;;9.63;8.67;;;21.80;99.90;;;;;;5042433;28;20202;-62
2023/09/09 08:01:20;;;;;;;9.23;8.27;;;21.90;99.90;;;;;;5034126;28;20206;-62
2023/09/09 08:03:45;;;;;;;8.87;8.07;;;22.00;99.90;;;;;;5039095;28;20218;-62
2023/09/09 08:06:11;;;;;;;9.17;8.27;;;22.00;99.90;;;;;;5043175;28;20237;-61
2023/09/09 08:08:37;;;;;;;9.27;8.35;;;22.10;99.90;;;;;;5034250;28;20286;-61
2023/09/09 08:11:03;;;;;;;8.80;8.00;;;22.10;99.90;;;;;;5038376;28;20206;-61
2023/09/09 08:13:29;;;;;;;8.50;7.47;;;22.20;99.90;;;;;;5036797;28;20828;-61
2023/09/09 08:15:54;;;;;;;10.30;7.72;;;22.30;99.90;;;;;;5038253;28;20203;-62
2023/09/09 08:18:20;;;;;;;9.23;7.63;;;22.30;99.90;;;;;;5037032;28;20196;-62
2023/09/09 08:20:50;;;;;;;8.77;7.88;;;22.30;99.90;;;;;;5039548;28;20209;-63
2023/09/09 08:23:16;;;;;;;8.98;7.95;;;22.40;99.90;;;;;;5040207;28;20245;-62
2023/09/09 08:25:41;;;;;;;7.72;6.95;;;22.50;99.90;;;;;;5033845;28;20682;-63
2023/09/09 08:28:07;;;;;;;9.27;7.60;;;22.50;99.90;;;;;;5035181;28;20900;-63
2023/09/09 08:30:32;;;;;;;7.85;7.10;;;22.60;99.90;;;;;;5040457;28;20240;-61
2023/09/09 08:32:58;;;;;;;7.90;7.18;;;22.50;99.90;;;;;;5016749;28;20286;-61
2023/09/09 08:35:24;;;;;;;8.30;7.47;;;22.60;99.90;;;;;;5034016;28;20227;-59
2023/09/09 08:37:50;;;;;;;8.30;6.75;;;22.70;99.90;;;;;;5040351;28;20767;-58
2023/09/09 08:40:16;;;;;;;9.85;7.22;;;22.90;99.90;;;;;;5032914;28;20235;-59
2023/09/09 08:43:19;;;;;;;8.05;7.07;;;22.90;99.90;;;;;;5036209;28;20317;-58
2023/09/09 08:46:02;;;;;;;7.80;7.10;;;23.00;99.90;;;;;;5035821;28;20189;-59
2023/09/09 08:48:32;;;;;;;10.68;7.35;;;23.10;99.90;;;;;;5034237;28;20306;-59
2023/09/09 08:51:03;;;;;;;10.80;6.45;;;23.10;99.90;;;;;;5037019;28;20297;-61
2023/09/09 08:53:31;;;;;;;7.75;7.03;;;23.20;99.90;;;;;;5016418;28;20199;-60
2023/09/09 08:55:58;;;;;;;7.70;6.93;;;23.20;99.90;;;;;;5044201;28;20244;-65
2023/09/09 08:58:25;;;;;;;8.77;7.68;;;23.40;99.90;;;;;;5036229;28;20201;-68
2023/09/09 09:00:51;;;;;;;11.27;7.00;;;23.50;99.90;;;;;;5026241;28;20207;-66
2023/09/09 09:03:18;;;;;;;8.32;7.15;;;23.60;99.90;;;;;;5039037;28;20303;-62
2023/09/09 09:05:44;;;;;;;9.48;6.63;;;23.60;99.90;;;;;;5035754;28;20210;-66
2023/09/09 09:08:10;;;;;;;8.02;7.25;;;23.60;99.90;;;;;;5038251;28;20224;-64
2023/09/09 09:10:37;;;;;;;9.45;7.47;;;23.70;99.90;;;;;;5032436;28;20507;-64
2023/09/09 09:13:03;;;;;;;7.38;6.32;;;23.80;99.90;;;;;;5035974;28;20363;-67
2023/09/09 09:15:32;;;;;;;7.95;6.70;;;24.00;99.90;;;;;;5016709;28;20665;-67
2023/09/09 09:17:59;;;;;;;7.45;6.75;;;24.00;99.90;;;;;;5038563;28;20228;-67
2023/09/09 09:20:26;;;;;;;7.03;6.43;;;24.20;99.90;;;;;;5040242;28;20292;-67
2023/09/09 09:22:56;;;;;;;21.20;7.38;;;24.20;99.90;;;;;;5021556;28;20218;-66
2023/09/09 09:25:21;;;;;;;6.53;5.93;;;24.30;99.90;;;;;;5034351;28;20641;-65
2023/09/09 09:27:47;;;;;;;6.82;6.13;;;24.30;99.90;;;;;;5033333;28;20278;-63
2023/09/09 09:30:13;;;;;;;6.15;5.60;;;24.40;99.80;;;;;;5036346;28;20231;-64
2023/09/09 09:32:40;;;;;;;6.95;6.38;;;24.40;99.60;;;;;;5036028;28;20667;-64
2023/09/09 09:35:20;;;;;;;7.53;6.07;;;24.40;99.90;;;;;;5036456;28;20571;-70
2023/09/09 09:37:56;;;;;;;9.00;6.97;;;24.50;99.90;;;;;;5041712;28;20203;-70
2023/09/09 09:40:22;;;;;;;7.20;5.95;;;24.60;99.60;;;;;;5022360;28;20861;-69
2023/09/09 09:42:48;;;;;;;6.97;6.15;;;24.80;99.60;;;;;;5038337;28;20219;-62
2023/09/09 09:45:14;;;;;;;7.40;6.32;;;24.70;99.90;;;;;;5010691;28;20217;-62
2023/09/09 09:47:48;;;;;;;6.82;6.10;;;25.00;98.60;;;;;;5034171;28;20277;-62
2023/09/09 09:50:20;;;;;;;7.38;6.65;;;25.00;98.70;;;;;;5033276;28;20261;-62
2023/09/09 09:52:48;;;;;;;9.80;5.63;;;25.20;98.40;;;;;;5010824;28;20244;-62
2023/09/09 09:55:17;;;;;;;7.13;5.90;;;25.30;97.80;;;;;;5033769;28;20274;-62
2023/09/09 09:57:45;;;;;;;6.20;5.70;;;25.40;97.80;;;;;;5032612;28;20747;-62
2023/09/09 10:00:13;;;;;;;6.28;5.68;;;25.50;98.10;;;;;;5039406;28;20215;-67
2023/09/09 10:02:41;;;;;;;13.27;5.90;;;25.50;96.80;;;;;;5021177;28;20198;-64
2023/09/09 10:05:12;;;;;;;6.10;5.43;;;25.70;96.50;;;;;;5016402;28;20237;-63
2023/09/09 10:07:42;;;;;;;7.18;6.47;;;25.70;96.50;;;;;;5019134;28;20270;-69
2023/09/09 10:10:12;;;;;;;10.93;6.60;;;25.80;96.10;;;;;;5033485;28;20209;-64
2023/09/09 10:13:03;;;;;;;8.00;6.45;;;25.90;96.00;;;;;;5037035;28;20211;-72
2023/09/09 10:15:30;;;;;;;7.05;5.78;;;25.80;96.50;;;;;;5027453;28;20206;-70
2023/09/09 10:17:59;;;;;;;6.78;6.18;;;25.80;96.90;;;;;;5042737;28;20230;-68
2023/09/09 10:20:24;;;;;;;10.73;6.20;;;25.80;96.80;;;;;;5042449;28;20310;-61
2023/09/09 10:22:53;;;;;;;8.60;5.53;;;25.90;95.60;;;;;;5016782;28;20220;-61
2023/09/09 10:25:19;;;;;;;6.00;5.40;;;26.10;94.80;;;;;;5017578;28;20248;-66
2023/09/09 10:27:46;;;;;;;7.97;5.28;;;26.30;94.10;;;;;;5014209;28;20198;-62
2023/09/09 10:30:12;;;;;;;6.20;5.60;;;26.40;94.40;;;;;;5031708;28;20621;-61
2023/09/09 10:32:40;;;;;;;6.13;5.43;;;26.50;93.30;;;;;;5038473;28;20211;-61
2023/09/09 10:35:06;;;;;;;6.03;4.90;;;26.60;93.10;;;;;;5037117;28;20200;-61
2023/09/09 10:37:37;;;;;;;6.75;5.90;;;26.80;92.40;;;;;;5039755;28;20201;-61
2023/09/09 10:40:06;;;;;;;8.00;5.25;;;26.90;91.80;;;;;;5030486;28;20209;-64
2023/09/09 10:42:37;;;;;;;5.65;4.78;;;27.00;90.40;;;;;;5034281;28;20225;-64
2023/09/09 10:45:28;;;;;;;5.60;4.60;;;26.90;92.10;;;;;;5024685;28;20208;-65
2023/09/09 10:48:07;;;;;;;5.53;4.55;;;27.20;90.50;;;;;;5020847;28;20909;-63
2023/09/09 10:50:49;;;;;;;5.22;4.40;;;27.40;90.20;;;;;;5035177;28;20247;-64
2023/09/09 10:53:24;;;;;;;5.03;4.43;;;27.60;87.50;;;;;;5035290;28;20198;-65
2023/09/09 10:55:54;;;;;;;4.75;4.35;;;27.90;86.30;;;;;;5036218;28;20657;-64
2023/09/09 10:58:32;;;;;;;6.63;4.38;;;28.00;84.00;;;;;;5034520;28;20269;-66
2023/09/09 11:00:58;;;;;;;4.55;4.15;;;28.20;79.00;;;;;;5034412;28;20198;-64
2023/09/09 11:03:28;;;;;;;5.22;4.70;;;28.40;80.50;;;;;;5037661;28;20258;-67
2023/09/09 11:06:10;;;;;;;6.38;4.47;;;28.30;83.50;;;;;;5015460;28;20275;-62
2023/09/09 11:08:41;;;;;;;5.43;4.82;;;28.30;84.10;;;;;;5033036;28;20208;-62
2023/09/09 11:11:08;;;;;;;5.65;5.05;;;28.30;81.80;;;;;;5031980;28;20553;-63
2023/09/09 11:13:58;;;;;;;6.13;4.95;;;28.50;80.50;;;;;;5028718;28;20207;-60
2023/09/09 11:16:41;;;;;;;5.13;4.65;;;28.60;80.60;;;;;;5035164;28;20282;-60
2023/09/09 11:19:15;;;;;;;5.30;4.78;;;28.80;79.40;;;;;;5037626;28;20778;-61
2023/09/09 11:21:44;;;;;;;5.07;4.57;;;28.80;78.60;;;;;;5033235;28;20695;-61
2023/09/09 11:24:11;;;;;;;5.18;4.78;;;28.90;77.00;;;;;;5034130;28;20263;-61
2023/09/09 11:26:38;;;;;;;5.00;4.60;;;28.90;75.80;;;;;;5024635;28;20194;-61
2023/09/09 11:29:05;;;;;;;7.07;5.07;;;29.20;74.60;;;;;;5046769;28;20203;-63
2023/09/09 11:31:30;;;;;;;5.40;4.90;;;29.30;73.10;;;;;;5037365;28;20222;-62
2023/09/09 11:33:56;;;;;;;6.75;4.55;;;29.40;75.10;;;;;;5041545;28;20236;-61
2023/09/09 11:36:22;;;;;;;9.90;4.70;;;29.20;77.10;;;;;;5039101;28;20210;-62
2023/09/09 11:38:48;;;;;;;5.82;4.63;;;29.60;72.10;;;;;;5032787;28;20615;-62
2023/09/09 11:41:21;;;;;;;5.63;5.13;;;29.70;73.40;;;;;;5038372;28;20991;-62
2023/09/09 11:44:16;;;;;;;5.03;4.53;;;30.20;70.00;;;;;;5038321;28;20606;-61
2023/09/09 11:46:45;;;;;;;4.95;4.45;;;30.20;70.10;;;;;;5009739;28;20238;-60
2023/09/09 11:49:12;;;;;;;4.78;4.47;;;30.60;68.00;;;;;;5036664;28;20194;-63
2023/09/09 11:51:38;;;;;;;5.03;4.63;;;30.20;68.00;;;;;;5035572;28;20229;-61
2023/09/09 11:54:06;;;;;;;5.32;4.93;;;30.00;69.40;;;;;;5042547;28;20199;-63
2023/09/09 11:56:33;;;;;;;4.70;4.30;;;30.10;68.60;;;;;;5018333;28;20218;-61
2023/09/09 11:59:08;;;;;;;5.15;4.60;;;30.40;70.10;;;;;;5035837;28;20213;-62
2023/09/09 12:01:42;;;;;;;4.90;4.47;;;30.80;67.20;;;;;;5042384;28;20699;-61
2023/09/09 12:04:08;;;;;;;5.07;4.43;;;31.30;67.30;;;;;;5041780;28;20226;-60
2023/09/09 12:06:34;;;;;;;4.43;4.10;;;31.30;64.60;;;;;;5036225;28;20194;-61
2023/09/09 12:09:01;;;;;;;4.30;4.00;;;31.40;62.30;;;;;;5037594;28;20744;-61
2023/09/09 12:11:27;;;;;;;6.63;5.03;;;31.10;63.60;;;;;;5037835;28;20587;-61
2023/09/09 12:13:52;;;;;;;4.20;3.90;;;31.00;63.30;;;;;;5034173;28;20206;-64
2023/09/09 12:16:18;;;;;;;4.80;4.40;;;30.80;65.00;;;;;;5038312;28;20206;-62
2023/09/09 12:18:53;;;;;;;4.38;3.97;;;31.10;61.40;;;;;;5022123;28;20235;-64
2023/09/09 12:21:19;;;;;;;4.68;4.18;;;31.80;61.40;;;;;;5038385;28;20840;-64
2023/09/09 12:23:46;;;;;;;4.25;3.90;;;31.90;58.70;;;;;;5033480;28;20229;-63
2023/09/09 12:26:16;;;;;;;5.20;4.70;;;31.70;58.90;;;;;;5040153;28;20765;-63
2023/09/09 12:28:43;;;;;;;4.80;4.40;;;31.50;57.70;;;;;;5041990;28;20195;-64
2023/09/09 12:31:10;;;;;;;4.45;4.15;;;31.40;58.90;;;;;;5039217;28;20307;-61
2023/09/09 12:33:44;;;;;;;4.60;4.18;;;31.60;59.20;;;;;;5034887;28;20206;-65
2023/09/09 12:36:20;;;;;;;4.78;4.38;;;31.80;59.00;;;;;;5037602;28;20198;-64